sensor_id;sensor_type;location;lat;lon;timestamp;P1;durP1;ratioP1;P2;durP2;ratioP2
7685;SDS011;3885;51.474;-2.576;2022-10-23T00:00:17;10.27;;;2.67;;
7685;SDS011;3885;51.474;-2.576;2022-10-23T00:02:44;10.17;;;2.43;;
7685;SDS011;3885;51.474;-2.576;2022-10-23T00:05:17;6.93;;;2.53;;
7685;SDS011;3885;51.474;-2.576;2022-10-23T00:07:49;5.87;;;2.10;;
7685;SDS011;3885;51.474;-2.576;2022-10-23T00:10:16;11.90;;;2.83;;
7685;SDS011;3885;51.474;-2.576;2022-10-23T00:12:44;12.27;;;4.33;;
7685;SDS011;3885;51.474;-2.576;2022-10-23T00:15:11;5.03;;;2.00;;
7685;SDS011;3885;51.474;-2.576;2022-10-23T00:17:39;15.53;;;2.80;;
7685;SDS011;3885;51.474;-2.576;2022-10-23T00:20:07;6.40;;;2.50;;
7685;SDS011;3885;51.474;-2.576;2022-10-23T00:22:34;6.17;;;2.27;;
7685;SDS011;3885;51.474;-2.576;2022-10-23T00:25:03;7.30;;;2.33;;
7685;SDS011;3885;51.474;-2.576;2022-10-23T00:27:31;7.07;;;2.20;;
7685;SDS011;3885;51.474;-2.576;2022-10-23T00:29:59;11.87;;;2.87;;
7685;SDS011;3885;51.474;-2.576;2022-10-23T00:32:26;8.57;;;2.40;;
7685;SDS011;3885;51.474;-2.576;2022-10-23T00:34:53;12.43;;;2.20;;
7685;SDS011;3885;51.474;-2.576;2022-10-23T00:37:20;6.70;;;2.03;;
7685;SDS011;3885;51.474;-2.576;2022-10-23T00:39:47;7.93;;;2.23;;
7685;SDS011;3885;51.474;-2.576;2022-10-23T00:42:16;5.40;;;2.47;;
7685;SDS011;3885;51.474;-2.576;2022-10-23T00:47:51;8.30;;;1.90;;
7685;SDS011;3885;51.474;-2.576;2022-10-23T00:50:19;7.40;;;2.13;;
7685;SDS011;3885;51.474;-2.576;2022-10-23T00:52:49;3.03;;;1.97;;
7685;SDS011;3885;51.474;-2.576;2022-10-23T00:55:18;10.50;;;2.50;;
7685;SDS011;3885;51.474;-2.576;2022-10-23T00:57:48;13.73;;;2.20;;
7685;SDS011;3885;51.474;-2.576;2022-10-23T01:00:16;6.97;;;2.23;;
7685;SDS011;3885;51.474;-2.576;2022-10-23T01:02:45;7.50;;;2.33;;
7685;SDS011;3885;51.474;-2.576;2022-10-23T01:05:12;6.00;;;3.07;;
7685;SDS011;3885;51.474;-2.576;2022-10-23T01:07:42;13.13;;;3.13;;
7685;SDS011;3885;51.474;-2.576;2022-10-23T01:10:17;7.73;;;1.97;;
7685;SDS011;3885;51.474;-2.576;2022-10-23T01:12:53;7.53;;;1.93;;
7685;SDS011;3885;51.474;-2.576;2022-10-23T01:15:28;4.43;;;2.00;;
7685;SDS011;3885;51.474;-2.576;2022-10-23T01:18:03;9.90;;;2.63;;
7685;SDS011;3885;51.474;-2.576;2022-10-23T01:20:37;5.20;;;2.37;;
7685;SDS011;3885;51.474;-2.576;2022-10-23T01:23:16;4.80;;;1.90;;
7685;SDS011;3885;51.474;-2.576;2022-10-23T01:25:57;9.43;;;2.27;;
7685;SDS011;3885;51.474;-2.576;2022-10-23T01:28:38;11.30;;;2.53;;
7685;SDS011;3885;51.474;-2.576;2022-10-23T01:31:10;8.20;;;2.50;;
7685;SDS011;3885;51.474;-2.576;2022-10-23T01:33:45;3.70;;;2.13;;
7685;SDS011;3885;51.474;-2.576;2022-10-23T01:36:16;9.97;;;2.40;;
7685;SDS011;3885;51.474;-2.576;2022-10-23T01:38:47;5.47;;;2.63;;
7685;SDS011;3885;51.474;-2.576;2022-10-23T01:41:20;9.07;;;1.80;;
7685;SDS011;3885;51.474;-2.576;2022-10-23T01:43:55;6.47;;;2.33;;
7685;SDS011;3885;51.474;-2.576;2022-10-23T01:46:25;2.90;;;2.07;;
7685;SDS011;3885;51.474;-2.576;2022-10-23T01:48:54;5.80;;;2.07;;
7685;SDS011;3885;51.474;-2.576;2022-10-23T01:51:23;14.27;;;1.80;;
7685;SDS011;3885;51.474;-2.576;2022-10-23T01:53:53;4.30;;;2.00;;
7685;SDS011;3885;51.474;-2.576;2022-10-23T01:56:24;9.83;;;2.20;;
7685;SDS011;3885;51.474;-2.576;2022-10-23T01:58:55;2.00;;;1.80;;
7685;SDS011;3885;51.474;-2.576;2022-10-23T02:01:25;3.27;;;1.77;;
7685;SDS011;3885;51.474;-2.576;2022-10-23T02:03:54;3.60;;;1.70;;
7685;SDS011;3885;51.474;-2.576;2022-10-23T02:06:22;5.17;;;2.30;;
7685;SDS011;3885;51.474;-2.576;2022-10-23T02:08:49;7.53;;;2.40;;
7685;SDS011;3885;51.474;-2.576;2022-10-23T02:11:18;7.70;;;2.50;;
7685;SDS011;3885;51.474;-2.576;2022-10-23T02:13:48;2.67;;;1.80;;
7685;SDS011;3885;51.474;-2.576;2022-10-23T02:16:23;13.43;;;2.17;;
7685;SDS011;3885;51.474;-2.576;2022-10-23T02:18:59;1.80;;;1.70;;
7685;SDS011;3885;51.474;-2.576;2022-10-23T02:21:33;7.57;;;2.07;;
7685;SDS011;3885;51.474;-2.576;2022-10-23T02:24:05;2.23;;;2.00;;
7685;SDS011;3885;51.474;-2.576;2022-10-23T02:26:37;23.70;;;3.20;;
7685;SDS011;3885;51.474;-2.576;2022-10-23T02:29:08;4.43;;;2.13;;
7685;SDS011;3885;51.474;-2.576;2022-10-23T02:31:41;3.83;;;2.53;;
7685;SDS011;3885;51.474;-2.576;2022-10-23T02:34:08;9.43;;;2.27;;
7685;SDS011;3885;51.474;-2.576;2022-10-23T02:36:35;4.53;;;2.10;;
7685;SDS011;3885;51.474;-2.576;2022-10-23T02:39:02;18.37;;;2.57;;
7685;SDS011;3885;51.474;-2.576;2022-10-23T02:41:32;3.20;;;1.50;;
7685;SDS011;3885;51.474;-2.576;2022-10-23T02:44:10;17.70;;;2.90;;
7685;SDS011;3885;51.474;-2.576;2022-10-23T02:46:55;5.00;;;2.23;;
7685;SDS011;3885;51.474;-2.576;2022-10-23T02:49:30;5.93;;;2.33;;
7685;SDS011;3885;51.474;-2.576;2022-10-23T02:52:06;11.30;;;1.90;;
7685;SDS011;3885;51.474;-2.576;2022-10-23T02:54:43;8.60;;;2.47;;
7685;SDS011;3885;51.474;-2.576;2022-10-23T02:57:21;5.73;;;2.07;;
7685;SDS011;3885;51.474;-2.576;2022-10-23T02:59:55;10.23;;;2.90;;
7685;SDS011;3885;51.474;-2.576;2022-10-23T03:02:31;7.40;;;2.47;;
7685;SDS011;3885;51.474;-2.576;2022-10-23T03:05:03;6.47;;;2.27;;
7685;SDS011;3885;51.474;-2.576;2022-10-23T03:07:32;7.87;;;2.30;;
7685;SDS011;3885;51.474;-2.576;2022-10-23T03:10:00;14.33;;;3.00;;
7685;SDS011;3885;51.474;-2.576;2022-10-23T03:12:27;10.90;;;2.13;;
7685;SDS011;3885;51.474;-2.576;2022-10-23T03:14:54;18.87;;;2.70;;
7685;SDS011;3885;51.474;-2.576;2022-10-23T03:17:21;7.77;;;2.27;;
7685;SDS011;3885;51.474;-2.576;2022-10-23T03:19:50;6.10;;;2.50;;
7685;SDS011;3885;51.474;-2.576;2022-10-23T03:22:17;10.70;;;2.90;;
7685;SDS011;3885;51.474;-2.576;2022-10-23T03:24:44;3.33;;;1.80;;
7685;SDS011;3885;51.474;-2.576;2022-10-23T03:27:11;2.73;;;2.27;;
7685;SDS011;3885;51.474;-2.576;2022-10-23T03:29:38;13.20;;;2.80;;
7685;SDS011;3885;51.474;-2.576;2022-10-23T03:32:06;9.30;;;2.50;;
7685;SDS011;3885;51.474;-2.576;2022-10-23T03:34:33;6.03;;;2.40;;
7685;SDS011;3885;51.474;-2.576;2022-10-23T03:37:02;7.03;;;2.50;;
7685;SDS011;3885;51.474;-2.576;2022-10-23T03:39:29;12.30;;;2.50;;
7685;SDS011;3885;51.474;-2.576;2022-10-23T03:41:56;11.63;;;3.17;;
7685;SDS011;3885;51.474;-2.576;2022-10-23T03:44:24;3.43;;;1.97;;
7685;SDS011;3885;51.474;-2.576;2022-10-23T03:46:50;3.13;;;1.90;;
7685;SDS011;3885;51.474;-2.576;2022-10-23T03:49:18;5.83;;;2.47;;
7685;SDS011;3885;51.474;-2.576;2022-10-23T03:51:45;9.70;;;2.10;;
7685;SDS011;3885;51.474;-2.576;2022-10-23T03:54:18;7.63;;;3.10;;
7685;SDS011;3885;51.474;-2.576;2022-10-23T03:56:46;11.10;;;2.40;;
7685;SDS011;3885;51.474;-2.576;2022-10-23T03:59:13;5.67;;;2.37;;
7685;SDS011;3885;51.474;-2.576;2022-10-23T04:01:40;3.33;;;2.13;;
7685;SDS011;3885;51.474;-2.576;2022-10-23T04:04:07;3.40;;;2.23;;
7685;SDS011;3885;51.474;-2.576;2022-10-23T04:06:34;7.97;;;3.20;;
7685;SDS011;3885;51.474;-2.576;2022-10-23T04:09:01;8.90;;;2.83;;
7685;SDS011;3885;51.474;-2.576;2022-10-23T04:11:30;6.23;;;2.23;;
7685;SDS011;3885;51.474;-2.576;2022-10-23T04:13:57;11.03;;;2.70;;
7685;SDS011;3885;51.474;-2.576;2022-10-23T04:16:25;9.13;;;2.80;;
7685;SDS011;3885;51.474;-2.576;2022-10-23T04:18:52;9.87;;;2.53;;
7685;SDS011;3885;51.474;-2.576;2022-10-23T04:21:19;2.77;;;2.50;;
7685;SDS011;3885;51.474;-2.576;2022-10-23T04:23:46;6.13;;;2.23;;
7685;SDS011;3885;51.474;-2.576;2022-10-23T04:26:13;6.57;;;2.60;;
7685;SDS011;3885;51.474;-2.576;2022-10-23T04:28:42;13.20;;;2.40;;
7685;SDS011;3885;51.474;-2.576;2022-10-23T04:31:09;8.73;;;2.67;;
7685;SDS011;3885;51.474;-2.576;2022-10-23T04:33:35;4.10;;;2.20;;
7685;SDS011;3885;51.474;-2.576;2022-10-23T04:36:03;3.23;;;2.03;;
7685;SDS011;3885;51.474;-2.576;2022-10-23T04:38:30;3.10;;;2.50;;
7685;SDS011;3885;51.474;-2.576;2022-10-23T04:40:57;2.63;;;2.10;;
7685;SDS011;3885;51.474;-2.576;2022-10-23T04:43:24;5.17;;;2.83;;
7685;SDS011;3885;51.474;-2.576;2022-10-23T04:45:53;3.23;;;1.90;;
7685;SDS011;3885;51.474;-2.576;2022-10-23T04:48:19;3.57;;;2.30;;
7685;SDS011;3885;51.474;-2.576;2022-10-23T04:50:53;5.60;;;2.53;;
7685;SDS011;3885;51.474;-2.576;2022-10-23T04:53:21;2.37;;;1.87;;
7685;SDS011;3885;51.474;-2.576;2022-10-23T04:55:49;3.20;;;1.70;;
7685;SDS011;3885;51.474;-2.576;2022-10-23T04:58:16;2.20;;;1.83;;
7685;SDS011;3885;51.474;-2.576;2022-10-23T05:00:43;5.80;;;1.50;;
7685;SDS011;3885;51.474;-2.576;2022-10-23T05:03:11;2.20;;;1.53;;
7685;SDS011;3885;51.474;-2.576;2022-10-23T05:05:39;5.00;;;1.90;;
7685;SDS011;3885;51.474;-2.576;2022-10-23T05:08:06;3.97;;;1.10;;
7685;SDS011;3885;51.474;-2.576;2022-10-23T05:10:34;2.77;;;1.23;;
7685;SDS011;3885;51.474;-2.576;2022-10-23T05:13:01;1.03;;;1.03;;
7685;SDS011;3885;51.474;-2.576;2022-10-23T05:15:28;1.10;;;1.10;;
7685;SDS011;3885;51.474;-2.576;2022-10-23T05:17:56;1.47;;;1.30;;
7685;SDS011;3885;51.474;-2.576;2022-10-23T05:20:30;0.73;;;0.73;;
7685;SDS011;3885;51.474;-2.576;2022-10-23T05:23:00;1.20;;;1.20;;
7685;SDS011;3885;51.474;-2.576;2022-10-23T05:25:31;1.97;;;1.30;;
7685;SDS011;3885;51.474;-2.576;2022-10-23T05:27:58;0.77;;;0.77;;
7685;SDS011;3885;51.474;-2.576;2022-10-23T05:30:25;2.10;;;1.00;;
7685;SDS011;3885;51.474;-2.576;2022-10-23T05:32:52;0.80;;;0.80;;
7685;SDS011;3885;51.474;-2.576;2022-10-23T05:35:20;0.73;;;0.73;;
7685;SDS011;3885;51.474;-2.576;2022-10-23T05:37:50;0.73;;;0.73;;
7685;SDS011;3885;51.474;-2.576;2022-10-23T05:40:19;0.80;;;0.80;;
7685;SDS011;3885;51.474;-2.576;2022-10-23T05:42:46;0.80;;;0.80;;
7685;SDS011;3885;51.474;-2.576;2022-10-23T05:45:13;1.30;;;0.90;;
7685;SDS011;3885;51.474;-2.576;2022-10-23T05:47:42;3.90;;;0.90;;
7685;SDS011;3885;51.474;-2.576;2022-10-23T05:50:09;0.70;;;0.70;;
7685;SDS011;3885;51.474;-2.576;2022-10-23T05:52:36;0.80;;;0.80;;
7685;SDS011;3885;51.474;-2.576;2022-10-23T05:55:05;1.23;;;0.90;;
7685;SDS011;3885;51.474;-2.576;2022-10-23T05:57:32;1.83;;;1.00;;
7685;SDS011;3885;51.474;-2.576;2022-10-23T05:59:59;1.40;;;0.97;;
7685;SDS011;3885;51.474;-2.576;2022-10-23T06:02:26;2.00;;;1.40;;
7685;SDS011;3885;51.474;-2.576;2022-10-23T06:04:53;1.33;;;1.23;;
7685;SDS011;3885;51.474;-2.576;2022-10-23T06:07:22;2.40;;;1.17;;
7685;SDS011;3885;51.474;-2.576;2022-10-23T06:09:49;1.90;;;1.03;;
7685;SDS011;3885;51.474;-2.576;2022-10-23T06:12:18;2.43;;;0.97;;
7685;SDS011;3885;51.474;-2.576;2022-10-23T06:14:45;0.97;;;0.90;;
7685;SDS011;3885;51.474;-2.576;2022-10-23T06:17:12;1.00;;;0.90;;
7685;SDS011;3885;51.474;-2.576;2022-10-23T06:19:39;4.33;;;0.93;;
7685;SDS011;3885;51.474;-2.576;2022-10-23T06:22:06;3.53;;;1.40;;
7685;SDS011;3885;51.474;-2.576;2022-10-23T06:24:33;3.70;;;1.27;;
7685;SDS011;3885;51.474;-2.576;2022-10-23T06:27:00;2.07;;;1.00;;
7685;SDS011;3885;51.474;-2.576;2022-10-23T06:29:29;1.20;;;1.20;;
7685;SDS011;3885;51.474;-2.576;2022-10-23T06:31:56;1.20;;;1.20;;
7685;SDS011;3885;51.474;-2.576;2022-10-23T06:34:23;1.87;;;1.10;;
7685;SDS011;3885;51.474;-2.576;2022-10-23T06:36:50;2.60;;;1.60;;
7685;SDS011;3885;51.474;-2.576;2022-10-23T06:39:17;4.47;;;1.60;;
7685;SDS011;3885;51.474;-2.576;2022-10-23T06:41:45;6.80;;;1.73;;
7685;SDS011;3885;51.474;-2.576;2022-10-23T06:44:12;3.87;;;1.57;;
7685;SDS011;3885;51.474;-2.576;2022-10-23T06:46:40;3.67;;;1.70;;
7685;SDS011;3885;51.474;-2.576;2022-10-23T06:49:11;2.80;;;1.90;;
7685;SDS011;3885;51.474;-2.576;2022-10-23T06:51:39;1.33;;;1.23;;
7685;SDS011;3885;51.474;-2.576;2022-10-23T06:54:06;1.97;;;1.57;;
7685;SDS011;3885;51.474;-2.576;2022-10-23T06:56:33;6.43;;;1.57;;
7685;SDS011;3885;51.474;-2.576;2022-10-23T06:59:00;6.20;;;1.83;;
7685;SDS011;3885;51.474;-2.576;2022-10-23T07:01:27;5.07;;;1.40;;
7685;SDS011;3885;51.474;-2.576;2022-10-23T07:03:56;6.03;;;1.60;;
7685;SDS011;3885;51.474;-2.576;2022-10-23T07:06:23;1.30;;;1.30;;
7685;SDS011;3885;51.474;-2.576;2022-10-23T07:08:50;6.50;;;1.97;;
7685;SDS011;3885;51.474;-2.576;2022-10-23T07:11:17;2.73;;;1.47;;
7685;SDS011;3885;51.474;-2.576;2022-10-23T07:13:44;2.63;;;1.33;;
7685;SDS011;3885;51.474;-2.576;2022-10-23T07:16:11;2.10;;;1.03;;
7685;SDS011;3885;51.474;-2.576;2022-10-23T07:18:40;0.90;;;0.90;;
7685;SDS011;3885;51.474;-2.576;2022-10-23T07:21:09;1.30;;;1.20;;
7685;SDS011;3885;51.474;-2.576;2022-10-23T07:23:36;1.03;;;1.03;;
7685;SDS011;3885;51.474;-2.576;2022-10-23T07:26:04;1.93;;;1.17;;
7685;SDS011;3885;51.474;-2.576;2022-10-23T07:28:32;1.00;;;1.00;;
7685;SDS011;3885;51.474;-2.576;2022-10-23T07:30:59;0.80;;;0.80;;
7685;SDS011;3885;51.474;-2.576;2022-10-23T07:33:26;1.10;;;0.90;;
7685;SDS011;3885;51.474;-2.576;2022-10-23T07:35:53;2.80;;;0.90;;
7685;SDS011;3885;51.474;-2.576;2022-10-23T07:38:22;0.83;;;0.83;;
7685;SDS011;3885;51.474;-2.576;2022-10-23T07:40:48;1.90;;;0.80;;
7685;SDS011;3885;51.474;-2.576;2022-10-23T07:43:16;0.80;;;0.80;;
7685;SDS011;3885;51.474;-2.576;2022-10-23T07:45:45;0.90;;;0.90;;
7685;SDS011;3885;51.474;-2.576;2022-10-23T07:48:13;1.77;;;1.00;;
7685;SDS011;3885;51.474;-2.576;2022-10-23T07:50:40;2.23;;;1.30;;
7685;SDS011;3885;51.474;-2.576;2022-10-23T07:53:10;0.90;;;0.80;;
7685;SDS011;3885;51.474;-2.576;2022-10-23T07:55:43;1.23;;;1.10;;
7685;SDS011;3885;51.474;-2.576;2022-10-23T07:58:16;0.90;;;0.90;;
7685;SDS011;3885;51.474;-2.576;2022-10-23T08:00:43;0.93;;;0.80;;
7685;SDS011;3885;51.474;-2.576;2022-10-23T08:03:16;0.90;;;0.90;;
7685;SDS011;3885;51.474;-2.576;2022-10-23T08:05:43;1.73;;;0.90;;
7685;SDS011;3885;51.474;-2.576;2022-10-23T08:08:10;2.33;;;1.00;;
7685;SDS011;3885;51.474;-2.576;2022-10-23T08:10:37;0.83;;;0.83;;
7685;SDS011;3885;51.474;-2.576;2022-10-23T08:13:07;0.90;;;0.90;;
7685;SDS011;3885;51.474;-2.576;2022-10-23T08:15:35;0.77;;;0.77;;
7685;SDS011;3885;51.474;-2.576;2022-10-23T08:18:02;0.80;;;0.80;;
7685;SDS011;3885;51.474;-2.576;2022-10-23T08:20:29;4.43;;;1.30;;
7685;SDS011;3885;51.474;-2.576;2022-10-23T08:22:58;0.80;;;0.80;;
7685;SDS011;3885;51.474;-2.576;2022-10-23T08:25:25;2.50;;;1.30;;
7685;SDS011;3885;51.474;-2.576;2022-10-23T08:27:52;8.80;;;1.00;;
7685;SDS011;3885;51.474;-2.576;2022-10-23T08:30:20;1.17;;;0.87;;
7685;SDS011;3885;51.474;-2.576;2022-10-23T08:32:47;0.80;;;0.80;;
7685;SDS011;3885;51.474;-2.576;2022-10-23T08:35:15;0.67;;;0.67;;
7685;SDS011;3885;51.474;-2.576;2022-10-23T08:37:42;2.83;;;0.90;;
7685;SDS011;3885;51.474;-2.576;2022-10-23T08:40:12;0.83;;;0.70;;
7685;SDS011;3885;51.474;-2.576;2022-10-23T08:42:40;0.80;;;0.80;;
7685;SDS011;3885;51.474;-2.576;2022-10-23T08:45:17;1.43;;;0.70;;
7685;SDS011;3885;51.474;-2.576;2022-10-23T08:47:53;1.70;;;0.80;;
7685;SDS011;3885;51.474;-2.576;2022-10-23T08:50:26;0.80;;;0.80;;
7685;SDS011;3885;51.474;-2.576;2022-10-23T08:52:56;0.77;;;0.77;;
7685;SDS011;3885;51.474;-2.576;2022-10-23T08:55:29;0.67;;;0.67;;
7685;SDS011;3885;51.474;-2.576;2022-10-23T08:57:59;1.47;;;1.00;;
7685;SDS011;3885;51.474;-2.576;2022-10-23T09:00:30;0.97;;;0.80;;
7685;SDS011;3885;51.474;-2.576;2022-10-23T09:02:59;1.17;;;0.77;;
7685;SDS011;3885;51.474;-2.576;2022-10-23T09:05:29;1.27;;;0.90;;
7685;SDS011;3885;51.474;-2.576;2022-10-23T09:08:03;1.10;;;0.73;;
7685;SDS011;3885;51.474;-2.576;2022-10-23T09:10:47;1.23;;;0.70;;
7685;SDS011;3885;51.474;-2.576;2022-10-23T09:13:29;0.80;;;0.70;;
7685;SDS011;3885;51.474;-2.576;2022-10-23T09:16:20;0.80;;;0.80;;
7685;SDS011;3885;51.474;-2.576;2022-10-23T09:18:55;0.50;;;0.50;;
7685;SDS011;3885;51.474;-2.576;2022-10-23T09:21:24;0.73;;;0.73;;
7685;SDS011;3885;51.474;-2.576;2022-10-23T09:23:52;0.60;;;0.60;;
7685;SDS011;3885;51.474;-2.576;2022-10-23T09:26:19;1.90;;;0.83;;
7685;SDS011;3885;51.474;-2.576;2022-10-23T09:28:47;2.70;;;1.10;;
7685;SDS011;3885;51.474;-2.576;2022-10-23T09:31:16;1.03;;;0.90;;
7685;SDS011;3885;51.474;-2.576;2022-10-23T09:33:55;2.67;;;0.70;;
7685;SDS011;3885;51.474;-2.576;2022-10-23T09:36:23;0.70;;;0.70;;
7685;SDS011;3885;51.474;-2.576;2022-10-23T09:38:53;0.60;;;0.60;;
7685;SDS011;3885;51.474;-2.576;2022-10-23T09:41:24;0.70;;;0.70;;
7685;SDS011;3885;51.474;-2.576;2022-10-23T09:44:00;1.10;;;1.03;;
7685;SDS011;3885;51.474;-2.576;2022-10-23T09:46:39;13.33;;;1.07;;
7685;SDS011;3885;51.474;-2.576;2022-10-23T09:49:15;1.53;;;0.83;;
7685;SDS011;3885;51.474;-2.576;2022-10-23T09:54:30;0.83;;;0.83;;
7685;SDS011;3885;51.474;-2.576;2022-10-23T09:57:01;0.97;;;0.80;;
7685;SDS011;3885;51.474;-2.576;2022-10-23T09:59:38;0.67;;;0.67;;
7685;SDS011;3885;51.474;-2.576;2022-10-23T10:02:15;1.03;;;0.60;;
7685;SDS011;3885;51.474;-2.576;2022-10-23T10:04:52;0.63;;;0.60;;
7685;SDS011;3885;51.474;-2.576;2022-10-23T10:07:20;2.60;;;0.80;;
7685;SDS011;3885;51.474;-2.576;2022-10-23T10:09:49;1.10;;;0.80;;
7685;SDS011;3885;51.474;-2.576;2022-10-23T10:12:19;0.63;;;0.63;;
7685;SDS011;3885;51.474;-2.576;2022-10-23T10:15:09;1.77;;;0.87;;
7685;SDS011;3885;51.474;-2.576;2022-10-23T10:17:46;4.87;;;0.83;;
7685;SDS011;3885;51.474;-2.576;2022-10-23T10:20:27;0.70;;;0.70;;
7685;SDS011;3885;51.474;-2.576;2022-10-23T10:23:15;1.93;;;0.80;;
7685;SDS011;3885;51.474;-2.576;2022-10-23T10:25:49;0.77;;;0.67;;
7685;SDS011;3885;51.474;-2.576;2022-10-23T10:28:27;0.70;;;0.70;;
7685;SDS011;3885;51.474;-2.576;2022-10-23T10:31:04;6.03;;;1.10;;
7685;SDS011;3885;51.474;-2.576;2022-10-23T10:33:42;0.70;;;0.70;;
7685;SDS011;3885;51.474;-2.576;2022-10-23T10:36:23;5.47;;;0.87;;
7685;SDS011;3885;51.474;-2.576;2022-10-23T10:39:00;12.07;;;0.70;;
7685;SDS011;3885;51.474;-2.576;2022-10-23T10:41:38;1.47;;;0.80;;
7685;SDS011;3885;51.474;-2.576;2022-10-23T10:47:19;0.60;;;0.60;;
7685;SDS011;3885;51.474;-2.576;2022-10-23T10:49:54;0.67;;;0.50;;
7685;SDS011;3885;51.474;-2.576;2022-10-23T10:52:31;5.80;;;0.70;;
7685;SDS011;3885;51.474;-2.576;2022-10-23T10:55:10;1.63;;;0.60;;
7685;SDS011;3885;51.474;-2.576;2022-10-23T10:57:43;6.10;;;0.90;;
7685;SDS011;3885;51.474;-2.576;2022-10-23T11:00:12;2.83;;;1.00;;
7685;SDS011;3885;51.474;-2.576;2022-10-23T11:02:42;2.80;;;0.70;;
7685;SDS011;3885;51.474;-2.576;2022-10-23T11:05:23;2.60;;;0.70;;
7685;SDS011;3885;51.474;-2.576;2022-10-23T11:07:58;0.70;;;0.70;;
7685;SDS011;3885;51.474;-2.576;2022-10-23T11:10:27;4.47;;;0.70;;
7685;SDS011;3885;51.474;-2.576;2022-10-23T11:12:55;6.10;;;0.90;;
7685;SDS011;3885;51.474;-2.576;2022-10-23T11:15:24;2.70;;;0.80;;
7685;SDS011;3885;51.474;-2.576;2022-10-23T11:17:54;2.60;;;0.70;;
7685;SDS011;3885;51.474;-2.576;2022-10-23T11:20:31;1.53;;;0.87;;
7685;SDS011;3885;51.474;-2.576;2022-10-23T11:23:25;2.00;;;0.87;;
7685;SDS011;3885;51.474;-2.576;2022-10-23T11:26:24;5.20;;;0.80;;
7685;SDS011;3885;51.474;-2.576;2022-10-23T11:29:10;1.27;;;1.00;;
7685;SDS011;3885;51.474;-2.576;2022-10-23T11:31:51;2.43;;;0.97;;
7685;SDS011;3885;51.474;-2.576;2022-10-23T11:37:33;3.87;;;1.83;;
7685;SDS011;3885;51.474;-2.576;2022-10-23T11:40:03;2.67;;;1.00;;
7685;SDS011;3885;51.474;-2.576;2022-10-23T11:42:46;4.40;;;0.70;;
7685;SDS011;3885;51.474;-2.576;2022-10-23T11:45:24;2.33;;;0.90;;
7685;SDS011;3885;51.474;-2.576;2022-10-23T11:48:02;1.67;;;1.00;;
7685;SDS011;3885;51.474;-2.576;2022-10-23T11:50:31;2.60;;;1.00;;
7685;SDS011;3885;51.474;-2.576;2022-10-23T11:53:00;3.53;;;1.20;;
7685;SDS011;3885;51.474;-2.576;2022-10-23T11:55:32;4.30;;;0.87;;
7685;SDS011;3885;51.474;-2.576;2022-10-23T11:58:10;0.63;;;0.63;;
7685;SDS011;3885;51.474;-2.576;2022-10-23T12:00:50;1.43;;;1.00;;
7685;SDS011;3885;51.474;-2.576;2022-10-23T12:03:21;1.53;;;0.80;;
7685;SDS011;3885;51.474;-2.576;2022-10-23T12:05:55;1.33;;;0.73;;
7685;SDS011;3885;51.474;-2.576;2022-10-23T12:08:26;6.57;;;0.97;;
7685;SDS011;3885;51.474;-2.576;2022-10-23T12:10:56;0.70;;;0.70;;
7685;SDS011;3885;51.474;-2.576;2022-10-23T12:13:28;3.43;;;0.80;;
7685;SDS011;3885;51.474;-2.576;2022-10-23T12:15:57;4.07;;;1.10;;
7685;SDS011;3885;51.474;-2.576;2022-10-23T12:18:24;3.50;;;0.87;;
7685;SDS011;3885;51.474;-2.576;2022-10-23T12:20:52;4.27;;;1.03;;
7685;SDS011;3885;51.474;-2.576;2022-10-23T12:23:34;7.80;;;1.07;;
7685;SDS011;3885;51.474;-2.576;2022-10-23T12:26:18;4.93;;;0.83;;
7685;SDS011;3885;51.474;-2.576;2022-10-23T12:28:54;1.67;;;0.83;;
7685;SDS011;3885;51.474;-2.576;2022-10-23T12:31:31;1.57;;;0.83;;
7685;SDS011;3885;51.474;-2.576;2022-10-23T12:34:12;2.67;;;0.90;;
7685;SDS011;3885;51.474;-2.576;2022-10-23T12:36:53;2.00;;;1.90;;
7685;SDS011;3885;51.474;-2.576;2022-10-23T12:39:32;6.67;;;0.80;;
7685;SDS011;3885;51.474;-2.576;2022-10-23T12:42:03;4.00;;;1.10;;
7685;SDS011;3885;51.474;-2.576;2022-10-23T12:44:31;2.00;;;0.83;;
7685;SDS011;3885;51.474;-2.576;2022-10-23T12:46:59;2.20;;;0.83;;
7685;SDS011;3885;51.474;-2.576;2022-10-23T12:49:28;0.90;;;0.73;;
7685;SDS011;3885;51.474;-2.576;2022-10-23T12:51:59;8.43;;;0.80;;
7685;SDS011;3885;51.474;-2.576;2022-10-23T12:54:29;4.03;;;1.23;;
7685;SDS011;3885;51.474;-2.576;2022-10-23T12:56:57;4.60;;;0.90;;
7685;SDS011;3885;51.474;-2.576;2022-10-23T12:59:26;5.27;;;0.90;;
7685;SDS011;3885;51.474;-2.576;2022-10-23T13:01:58;3.63;;;1.70;;
7685;SDS011;3885;51.474;-2.576;2022-10-23T13:04:27;1.13;;;0.80;;
7685;SDS011;3885;51.474;-2.576;2022-10-23T13:06:56;4.43;;;1.13;;
7685;SDS011;3885;51.474;-2.576;2022-10-23T13:09:28;0.90;;;0.80;;
7685;SDS011;3885;51.474;-2.576;2022-10-23T13:11:57;1.70;;;0.87;;
7685;SDS011;3885;51.474;-2.576;2022-10-23T13:14:31;7.20;;;0.90;;
7685;SDS011;3885;51.474;-2.576;2022-10-23T13:17:00;1.10;;;0.83;;
7685;SDS011;3885;51.474;-2.576;2022-10-23T13:19:28;3.47;;;1.00;;
7685;SDS011;3885;51.474;-2.576;2022-10-23T13:21:55;6.03;;;0.83;;
7685;SDS011;3885;51.474;-2.576;2022-10-23T13:24:23;5.07;;;1.00;;
7685;SDS011;3885;51.474;-2.576;2022-10-23T13:26:51;7.50;;;1.13;;
7685;SDS011;3885;51.474;-2.576;2022-10-23T13:29:19;7.77;;;1.50;;
7685;SDS011;3885;51.474;-2.576;2022-10-23T13:31:49;1.17;;;0.80;;
7685;SDS011;3885;51.474;-2.576;2022-10-23T13:34:18;13.57;;;1.47;;
7685;SDS011;3885;51.474;-2.576;2022-10-23T13:36:53;5.10;;;0.90;;
7685;SDS011;3885;51.474;-2.576;2022-10-23T13:39:26;4.57;;;1.07;;
7685;SDS011;3885;51.474;-2.576;2022-10-23T13:41:55;4.23;;;0.90;;
7685;SDS011;3885;51.474;-2.576;2022-10-23T13:44:25;4.47;;;1.00;;
7685;SDS011;3885;51.474;-2.576;2022-10-23T13:46:54;1.30;;;1.20;;
7685;SDS011;3885;51.474;-2.576;2022-10-23T13:49:21;1.83;;;1.20;;
7685;SDS011;3885;51.474;-2.576;2022-10-23T13:51:49;6.00;;;2.10;;
7685;SDS011;3885;51.474;-2.576;2022-10-23T13:54:20;4.83;;;0.80;;
7685;SDS011;3885;51.474;-2.576;2022-10-23T13:56:48;1.30;;;1.00;;
7685;SDS011;3885;51.474;-2.576;2022-10-23T13:59:16;2.13;;;0.90;;
7685;SDS011;3885;51.474;-2.576;2022-10-23T14:01:44;1.80;;;0.90;;
7685;SDS011;3885;51.474;-2.576;2022-10-23T14:04:14;3.73;;;1.23;;
7685;SDS011;3885;51.474;-2.576;2022-10-23T14:06:43;2.53;;;0.90;;
7685;SDS011;3885;51.474;-2.576;2022-10-23T14:09:11;1.70;;;0.93;;
7685;SDS011;3885;51.474;-2.576;2022-10-23T14:11:39;3.90;;;1.20;;
7685;SDS011;3885;51.474;-2.576;2022-10-23T14:14:07;5.37;;;0.80;;
7685;SDS011;3885;51.474;-2.576;2022-10-23T14:16:34;6.23;;;1.00;;
7685;SDS011;3885;51.474;-2.576;2022-10-23T14:19:01;2.97;;;1.00;;
7685;SDS011;3885;51.474;-2.576;2022-10-23T14:21:30;3.97;;;0.80;;
7685;SDS011;3885;51.474;-2.576;2022-10-23T14:23:57;0.83;;;0.70;;
7685;SDS011;3885;51.474;-2.576;2022-10-23T14:26:24;3.63;;;0.90;;
7685;SDS011;3885;51.474;-2.576;2022-10-23T14:28:54;16.33;;;1.07;;
7685;SDS011;3885;51.474;-2.576;2022-10-23T14:31:22;2.77;;;0.77;;
7685;SDS011;3885;51.474;-2.576;2022-10-23T14:33:50;2.20;;;1.47;;
7685;SDS011;3885;51.474;-2.576;2022-10-23T14:36:19;1.23;;;0.60;;
7685;SDS011;3885;51.474;-2.576;2022-10-23T14:38:47;4.93;;;1.13;;
7685;SDS011;3885;51.474;-2.576;2022-10-23T14:41:15;3.60;;;1.20;;
7685;SDS011;3885;51.474;-2.576;2022-10-23T14:43:42;1.63;;;1.00;;
7685;SDS011;3885;51.474;-2.576;2022-10-23T14:46:10;1.20;;;0.90;;
7685;SDS011;3885;51.474;-2.576;2022-10-23T14:48:38;6.00;;;1.07;;
7685;SDS011;3885;51.474;-2.576;2022-10-23T14:51:06;2.07;;;1.07;;
7685;SDS011;3885;51.474;-2.576;2022-10-23T14:53:41;1.93;;;0.90;;
7685;SDS011;3885;51.474;-2.576;2022-10-23T14:56:09;1.47;;;0.90;;
7685;SDS011;3885;51.474;-2.576;2022-10-23T14:58:36;0.83;;;0.70;;
7685;SDS011;3885;51.474;-2.576;2022-10-23T15:01:03;2.30;;;1.00;;
7685;SDS011;3885;51.474;-2.576;2022-10-23T15:03:30;2.10;;;0.90;;
7685;SDS011;3885;51.474;-2.576;2022-10-23T15:05:57;1.90;;;0.80;;
7685;SDS011;3885;51.474;-2.576;2022-10-23T15:08:24;1.67;;;0.97;;
7685;SDS011;3885;51.474;-2.576;2022-10-23T15:10:51;0.73;;;0.73;;
7685;SDS011;3885;51.474;-2.576;2022-10-23T15:13:20;3.60;;;1.00;;
7685;SDS011;3885;51.474;-2.576;2022-10-23T15:15:47;4.47;;;0.90;;
7685;SDS011;3885;51.474;-2.576;2022-10-23T15:18:14;0.60;;;0.60;;
7685;SDS011;3885;51.474;-2.576;2022-10-23T15:20:51;1.13;;;0.63;;
7685;SDS011;3885;51.474;-2.576;2022-10-23T15:23:18;4.77;;;3.13;;
7685;SDS011;3885;51.474;-2.576;2022-10-23T15:25:52;2.70;;;1.27;;
7685;SDS011;3885;51.474;-2.576;2022-10-23T15:28:21;9.37;;;1.77;;
7685;SDS011;3885;51.474;-2.576;2022-10-23T15:30:48;7.10;;;1.23;;